sensor_id;sensor_type;location;lat;lon;timestamp;P1;durP1;ratioP1;P2;durP2;ratioP2
7080;SDS011;3582;51.506;11.948;2022-08-11T00:02:05;3.63;;;3.43;;
7080;SDS011;3582;51.506;11.948;2022-08-11T00:04:33;3.03;;;2.80;;
7080;SDS011;3582;51.506;11.948;2022-08-11T00:07:01;3.73;;;2.70;;
7080;SDS011;3582;51.506;11.948;2022-08-11T00:09:31;3.20;;;3.00;;
7080;SDS011;3582;51.506;11.948;2022-08-11T00:11:58;4.30;;;2.73;;
7080;SDS011;3582;51.506;11.948;2022-08-11T00:14:25;3.17;;;2.97;;
7080;SDS011;3582;51.506;11.948;2022-08-11T00:16:53;2.90;;;2.70;;
7080;SDS011;3582;51.506;11.948;2022-08-11T00:19:20;3.33;;;3.13;;
7080;SDS011;3582;51.506;11.948;2022-08-11T00:21:47;6.13;;;2.93;;
7080;SDS011;3582;51.506;11.948;2022-08-11T00:24:13;3.47;;;3.00;;
7080;SDS011;3582;51.506;11.948;2022-08-11T00:26:41;2.67;;;2.47;;
7080;SDS011;3582;51.506;11.948;2022-08-11T00:29:11;5.27;;;3.07;;
7080;SDS011;3582;51.506;11.948;2022-08-11T00:31:37;4.33;;;3.30;;
7080;SDS011;3582;51.506;11.948;2022-08-11T00:34:09;3.23;;;2.90;;
7080;SDS011;3582;51.506;11.948;2022-08-11T00:36:42;4.07;;;2.57;;
7080;SDS011;3582;51.506;11.948;2022-08-11T00:39:10;5.00;;;3.07;;
7080;SDS011;3582;51.506;11.948;2022-08-11T00:47:03;4.40;;;3.33;;
7080;SDS011;3582;51.506;11.948;2022-08-11T00:49:38;8.40;;;3.10;;
7080;SDS011;3582;51.506;11.948;2022-08-11T00:55:06;3.73;;;2.90;;
7080;SDS011;3582;51.506;11.948;2022-08-11T01:00:18;2.60;;;2.40;;
7080;SDS011;3582;51.506;11.948;2022-08-11T01:03:03;3.43;;;3.13;;
7080;SDS011;3582;51.506;11.948;2022-08-11T01:05:37;2.60;;;2.50;;
7080;SDS011;3582;51.506;11.948;2022-08-11T01:08:15;3.17;;;2.97;;
7080;SDS011;3582;51.506;11.948;2022-08-11T01:31:49;5.63;;;2.93;;
7080;SDS011;3582;51.506;11.948;2022-08-11T01:37:24;6.70;;;2.97;;
7080;SDS011;3582;51.506;11.948;2022-08-11T01:40:18;3.10;;;2.90;;
7080;SDS011;3582;51.506;11.948;2022-08-11T01:43:07;4.03;;;3.63;;
7080;SDS011;3582;51.506;11.948;2022-08-11T01:46:06;3.90;;;3.00;;
7080;SDS011;3582;51.506;11.948;2022-08-11T01:48:38;2.83;;;2.60;;
7080;SDS011;3582;51.506;11.948;2022-08-11T01:58:44;4.17;;;3.90;;
7080;SDS011;3582;51.506;11.948;2022-08-11T02:03:48;3.77;;;3.47;;
7080;SDS011;3582;51.506;11.948;2022-08-11T02:06:21;7.93;;;4.43;;
7080;SDS011;3582;51.506;11.948;2022-08-11T02:09:24;7.03;;;3.20;;
7080;SDS011;3582;51.506;11.948;2022-08-11T02:11:51;5.13;;;3.17;;
7080;SDS011;3582;51.506;11.948;2022-08-11T02:25:11;3.67;;;3.37;;
7080;SDS011;3582;51.506;11.948;2022-08-11T02:27:44;3.10;;;2.80;;
7080;SDS011;3582;51.506;11.948;2022-08-11T02:30:13;3.17;;;2.87;;
7080;SDS011;3582;51.506;11.948;2022-08-11T02:35:28;4.13;;;3.50;;
7080;SDS011;3582;51.506;11.948;2022-08-11T02:43:21;5.77;;;3.87;;
7080;SDS011;3582;51.506;11.948;2022-08-11T02:56:39;4.43;;;3.40;;
7080;SDS011;3582;51.506;11.948;2022-08-11T02:59:18;5.60;;;3.57;;
7080;SDS011;3582;51.506;11.948;2022-08-11T03:02:19;4.07;;;3.47;;
7080;SDS011;3582;51.506;11.948;2022-08-11T03:04:59;3.37;;;2.90;;
7080;SDS011;3582;51.506;11.948;2022-08-11T03:07:33;4.03;;;3.40;;
7080;SDS011;3582;51.506;11.948;2022-08-11T03:13:23;4.50;;;3.37;;
7080;SDS011;3582;51.506;11.948;2022-08-11T03:18:49;4.23;;;3.87;;
7080;SDS011;3582;51.506;11.948;2022-08-11T03:21:22;5.63;;;3.63;;
7080;SDS011;3582;51.506;11.948;2022-08-11T03:23:54;5.50;;;4.00;;
7080;SDS011;3582;51.506;11.948;2022-08-11T03:26:34;3.40;;;2.93;;
7080;SDS011;3582;51.506;11.948;2022-08-11T03:29:19;5.00;;;3.60;;
7080;SDS011;3582;51.506;11.948;2022-08-11T03:31:48;4.30;;;4.00;;
7080;SDS011;3582;51.506;11.948;2022-08-11T03:34:24;3.90;;;3.60;;
7080;SDS011;3582;51.506;11.948;2022-08-11T03:36:53;3.30;;;3.10;;
7080;SDS011;3582;51.506;11.948;2022-08-11T03:47:33;6.73;;;3.73;;
7080;SDS011;3582;51.506;11.948;2022-08-11T03:50:07;3.03;;;2.80;;
7080;SDS011;3582;51.506;11.948;2022-08-11T04:16:09;11.87;;;4.77;;
7080;SDS011;3582;51.506;11.948;2022-08-11T04:32:03;6.67;;;3.60;;
7080;SDS011;3582;51.506;11.948;2022-08-11T04:34:35;5.53;;;3.97;;
7080;SDS011;3582;51.506;11.948;2022-08-11T04:40:33;4.70;;;4.00;;
7080;SDS011;3582;51.506;11.948;2022-08-11T04:43:14;4.40;;;4.07;;
7080;SDS011;3582;51.506;11.948;2022-08-11T04:51:21;7.10;;;4.60;;
7080;SDS011;3582;51.506;11.948;2022-08-11T04:57:16;3.83;;;3.63;;
7080;SDS011;3582;51.506;11.948;2022-08-11T05:00:07;19.60;;;5.80;;
7080;SDS011;3582;51.506;11.948;2022-08-11T05:05:30;4.13;;;3.80;;
7080;SDS011;3582;51.506;11.948;2022-08-11T05:13:31;8.03;;;4.50;;
7080;SDS011;3582;51.506;11.948;2022-08-11T05:16:18;10.07;;;5.03;;
7080;SDS011;3582;51.506;11.948;2022-08-11T05:19:03;22.47;;;6.87;;
7080;SDS011;3582;51.506;11.948;2022-08-11T05:21:55;5.43;;;4.93;;
7080;SDS011;3582;51.506;11.948;2022-08-11T05:24:41;6.17;;;4.60;;
7080;SDS011;3582;51.506;11.948;2022-08-11T05:27:32;5.73;;;5.20;;
7080;SDS011;3582;51.506;11.948;2022-08-11T05:30:18;9.33;;;4.33;;
7080;SDS011;3582;51.506;11.948;2022-08-11T05:33:11;5.67;;;4.33;;
7080;SDS011;3582;51.506;11.948;2022-08-11T05:36:03;8.93;;;4.53;;
7080;SDS011;3582;51.506;11.948;2022-08-11T05:38:33;5.83;;;4.27;;
7080;SDS011;3582;51.506;11.948;2022-08-11T05:41:18;5.93;;;4.37;;
7080;SDS011;3582;51.506;11.948;2022-08-11T05:44:03;4.80;;;4.33;;
7080;SDS011;3582;51.506;11.948;2022-08-11T05:46:48;4.40;;;4.10;;
7080;SDS011;3582;51.506;11.948;2022-08-11T05:49:34;6.67;;;4.40;;
7080;SDS011;3582;51.506;11.948;2022-08-11T05:52:21;5.47;;;4.47;;
7080;SDS011;3582;51.506;11.948;2022-08-11T05:55:06;4.43;;;4.07;;
7080;SDS011;3582;51.506;11.948;2022-08-11T05:57:55;7.50;;;4.50;;
7080;SDS011;3582;51.506;11.948;2022-08-11T06:00:22;4.60;;;4.30;;
7080;SDS011;3582;51.506;11.948;2022-08-11T06:02:56;13.60;;;5.33;;
7080;SDS011;3582;51.506;11.948;2022-08-11T06:05:58;4.53;;;3.83;;
7080;SDS011;3582;51.506;11.948;2022-08-11T06:08:17;5.63;;;3.83;;
7080;SDS011;3582;51.506;11.948;2022-08-11T06:10:43;10.17;;;4.10;;
7080;SDS011;3582;51.506;11.948;2022-08-11T06:13:14;5.57;;;4.90;;
7080;SDS011;3582;51.506;11.948;2022-08-11T06:15:45;5.57;;;4.30;;
7080;SDS011;3582;51.506;11.948;2022-08-11T06:18:11;5.40;;;4.23;;
7080;SDS011;3582;51.506;11.948;2022-08-11T06:20:45;7.23;;;4.23;;
7080;SDS011;3582;51.506;11.948;2022-08-11T06:23:11;7.40;;;3.93;;
7080;SDS011;3582;51.506;11.948;2022-08-11T06:25:39;7.43;;;4.93;;
7080;SDS011;3582;51.506;11.948;2022-08-11T06:28:06;14.67;;;6.10;;
7080;SDS011;3582;51.506;11.948;2022-08-11T06:30:35;7.47;;;4.60;;
7080;SDS011;3582;51.506;11.948;2022-08-11T06:33:52;6.37;;;5.50;;
7080;SDS011;3582;51.506;11.948;2022-08-11T06:35:59;7.87;;;5.30;;
7080;SDS011;3582;51.506;11.948;2022-08-11T06:38:45;5.83;;;5.33;;
7080;SDS011;3582;51.506;11.948;2022-08-11T06:41:24;6.63;;;4.70;;
7080;SDS011;3582;51.506;11.948;2022-08-11T06:46:45;12.60;;;6.07;;
7080;SDS011;3582;51.506;11.948;2022-08-11T06:49:14;7.23;;;5.87;;
7080;SDS011;3582;51.506;11.948;2022-08-11T06:52:00;6.57;;;5.87;;
7080;SDS011;3582;51.506;11.948;2022-08-11T06:54:31;8.83;;;5.23;;
7080;SDS011;3582;51.506;11.948;2022-08-11T06:56:58;9.50;;;6.40;;
7080;SDS011;3582;51.506;11.948;2022-08-11T06:59:43;13.33;;;5.70;;
7080;SDS011;3582;51.506;11.948;2022-08-11T07:02:32;9.03;;;5.53;;
7080;SDS011;3582;51.506;11.948;2022-08-11T07:05:07;12.23;;;6.40;;
7080;SDS011;3582;51.506;11.948;2022-08-11T07:13:29;10.50;;;6.80;;
7080;SDS011;3582;51.506;11.948;2022-08-11T07:16:17;11.37;;;6.43;;
7080;SDS011;3582;51.506;11.948;2022-08-11T07:18:45;6.70;;;5.63;;
7080;SDS011;3582;51.506;11.948;2022-08-11T07:21:31;19.20;;;6.80;;
7080;SDS011;3582;51.506;11.948;2022-08-11T07:24:21;31.40;;;10.30;;
7080;SDS011;3582;51.506;11.948;2022-08-11T07:27:08;8.27;;;5.70;;
7080;SDS011;3582;51.506;11.948;2022-08-11T07:29:54;6.93;;;6.10;;
7080;SDS011;3582;51.506;11.948;2022-08-11T07:32:25;11.97;;;7.13;;
7080;SDS011;3582;51.506;11.948;2022-08-11T07:34:55;6.73;;;6.03;;
7080;SDS011;3582;51.506;11.948;2022-08-11T07:37:23;12.50;;;7.13;;
7080;SDS011;3582;51.506;11.948;2022-08-11T07:39:53;6.57;;;5.90;;
7080;SDS011;3582;51.506;11.948;2022-08-11T07:42:20;10.97;;;7.47;;
7080;SDS011;3582;51.506;11.948;2022-08-11T07:44:47;8.00;;;5.53;;
7080;SDS011;3582;51.506;11.948;2022-08-11T07:47:32;6.13;;;5.70;;
7080;SDS011;3582;51.506;11.948;2022-08-11T07:50:18;20.30;;;7.47;;
7080;SDS011;3582;51.506;11.948;2022-08-11T07:53:03;9.30;;;5.53;;
7080;SDS011;3582;51.506;11.948;2022-08-11T07:55:29;6.40;;;5.87;;
7080;SDS011;3582;51.506;11.948;2022-08-11T07:57:56;9.40;;;7.80;;
7080;SDS011;3582;51.506;11.948;2022-08-11T08:00:43;9.53;;;6.80;;
7080;SDS011;3582;51.506;11.948;2022-08-11T08:03:29;8.30;;;5.97;;
7080;SDS011;3582;51.506;11.948;2022-08-11T08:06:14;11.70;;;5.40;;
7080;SDS011;3582;51.506;11.948;2022-08-11T08:09:00;10.73;;;6.07;;
7080;SDS011;3582;51.506;11.948;2022-08-11T08:11:44;6.90;;;5.90;;
7080;SDS011;3582;51.506;11.948;2022-08-11T08:14:30;10.97;;;6.33;;
7080;SDS011;3582;51.506;11.948;2022-08-11T08:17:15;9.83;;;6.20;;
7080;SDS011;3582;51.506;11.948;2022-08-11T08:20:00;6.87;;;5.20;;
7080;SDS011;3582;51.506;11.948;2022-08-11T08:22:27;6.40;;;5.90;;
7080;SDS011;3582;51.506;11.948;2022-08-11T08:24:54;6.67;;;5.40;;
7080;SDS011;3582;51.506;11.948;2022-08-11T08:27:22;6.43;;;5.67;;
7080;SDS011;3582;51.506;11.948;2022-08-11T08:29:49;6.77;;;5.80;;
7080;SDS011;3582;51.506;11.948;2022-08-11T08:32:37;8.47;;;6.13;;
7080;SDS011;3582;51.506;11.948;2022-08-11T08:35:03;12.63;;;5.37;;
7080;SDS011;3582;51.506;11.948;2022-08-11T08:37:30;10.13;;;5.37;;
7080;SDS011;3582;51.506;11.948;2022-08-11T08:39:56;5.80;;;5.30;;
7080;SDS011;3582;51.506;11.948;2022-08-11T08:42:24;7.17;;;4.83;;
7080;SDS011;3582;51.506;11.948;2022-08-11T08:44:52;10.27;;;5.13;;
7080;SDS011;3582;51.506;11.948;2022-08-11T08:47:21;5.40;;;5.00;;
7080;SDS011;3582;51.506;11.948;2022-08-11T08:49:48;13.17;;;5.50;;
7080;SDS011;3582;51.506;11.948;2022-08-11T08:52:20;6.63;;;4.40;;
7080;SDS011;3582;51.506;11.948;2022-08-11T08:54:48;6.30;;;5.20;;
7080;SDS011;3582;51.506;11.948;2022-08-11T08:57:14;12.37;;;5.50;;
7080;SDS011;3582;51.506;11.948;2022-08-11T08:59:43;8.27;;;5.10;;
7080;SDS011;3582;51.506;11.948;2022-08-11T09:02:10;12.73;;;4.87;;
7080;SDS011;3582;51.506;11.948;2022-08-11T09:04:43;4.67;;;4.30;;
7080;SDS011;3582;51.506;11.948;2022-08-11T09:07:19;4.77;;;4.37;;
7080;SDS011;3582;51.506;11.948;2022-08-11T09:09:48;5.10;;;4.20;;
7080;SDS011;3582;51.506;11.948;2022-08-11T09:12:14;12.23;;;4.57;;
7080;SDS011;3582;51.506;11.948;2022-08-11T09:14:43;4.20;;;4.00;;
7080;SDS011;3582;51.506;11.948;2022-08-11T09:17:34;3.53;;;3.23;;
7080;SDS011;3582;51.506;11.948;2022-08-11T09:20:02;3.90;;;3.33;;
7080;SDS011;3582;51.506;11.948;2022-08-11T09:22:32;4.40;;;4.00;;
7080;SDS011;3582;51.506;11.948;2022-08-11T09:25:18;6.83;;;3.77;;
7080;SDS011;3582;51.506;11.948;2022-08-11T09:28:03;3.80;;;3.50;;
7080;SDS011;3582;51.506;11.948;2022-08-11T09:30:31;12.20;;;4.40;;
7080;SDS011;3582;51.506;11.948;2022-08-11T09:32:58;7.03;;;3.73;;
7080;SDS011;3582;51.506;11.948;2022-08-11T09:35:26;5.07;;;4.57;;
7080;SDS011;3582;51.506;11.948;2022-08-11T09:37:53;5.83;;;4.90;;
7080;SDS011;3582;51.506;11.948;2022-08-11T09:40:38;5.40;;;4.03;;
7080;SDS011;3582;51.506;11.948;2022-08-11T09:43:08;8.33;;;3.87;;
7080;SDS011;3582;51.506;11.948;2022-08-11T09:45:53;4.37;;;4.07;;
7080;SDS011;3582;51.506;11.948;2022-08-11T09:48:24;9.53;;;3.90;;
7080;SDS011;3582;51.506;11.948;2022-08-11T09:50:54;15.67;;;4.50;;
7080;SDS011;3582;51.506;11.948;2022-08-11T09:53:20;7.53;;;4.50;;
7080;SDS011;3582;51.506;11.948;2022-08-11T09:55:47;6.60;;;3.70;;
7080;SDS011;3582;51.506;11.948;2022-08-11T09:58:13;4.00;;;3.70;;
7080;SDS011;3582;51.506;11.948;2022-08-11T10:00:47;4.40;;;4.00;;
7080;SDS011;3582;51.506;11.948;2022-08-11T10:03:19;3.83;;;3.63;;
7080;SDS011;3582;51.506;11.948;2022-08-11T10:05:47;4.03;;;3.73;;
7080;SDS011;3582;51.506;11.948;2022-08-11T10:08:32;4.30;;;4.00;;
7080;SDS011;3582;51.506;11.948;2022-08-11T10:10:59;4.43;;;4.00;;
7080;SDS011;3582;51.506;11.948;2022-08-11T10:13:30;4.03;;;3.73;;
7080;SDS011;3582;51.506;11.948;2022-08-11T10:16:00;4.37;;;3.97;;
7080;SDS011;3582;51.506;11.948;2022-08-11T10:18:33;4.43;;;3.77;;
7080;SDS011;3582;51.506;11.948;2022-08-11T10:21:13;5.70;;;3.53;;
7080;SDS011;3582;51.506;11.948;2022-08-11T10:23:39;4.73;;;4.30;;
7080;SDS011;3582;51.506;11.948;2022-08-11T10:26:25;4.90;;;4.07;;
7080;SDS011;3582;51.506;11.948;2022-08-11T10:29:10;6.80;;;4.10;;
7080;SDS011;3582;51.506;11.948;2022-08-11T10:31:56;3.57;;;3.27;;
7080;SDS011;3582;51.506;11.948;2022-08-11T10:34:46;7.70;;;4.33;;
7080;SDS011;3582;51.506;11.948;2022-08-11T10:37:12;6.30;;;3.90;;
7080;SDS011;3582;51.506;11.948;2022-08-11T10:39:39;5.53;;;4.53;;
7080;SDS011;3582;51.506;11.948;2022-08-11T10:42:06;4.57;;;3.80;;
7080;SDS011;3582;51.506;11.948;2022-08-11T10:44:52;4.80;;;4.37;;
7080;SDS011;3582;51.506;11.948;2022-08-11T10:47:18;4.90;;;4.40;;
7080;SDS011;3582;51.506;11.948;2022-08-11T10:50:04;3.87;;;3.57;;
7080;SDS011;3582;51.506;11.948;2022-08-11T10:52:51;3.80;;;3.50;;
7080;SDS011;3582;51.506;11.948;2022-08-11T10:55:36;4.10;;;3.70;;
7080;SDS011;3582;51.506;11.948;2022-08-11T10:58:22;4.33;;;4.03;;
7080;SDS011;3582;51.506;11.948;2022-08-11T11:01:07;4.27;;;3.87;;
7080;SDS011;3582;51.506;11.948;2022-08-11T11:03:34;7.33;;;4.30;;
7080;SDS011;3582;51.506;11.948;2022-08-11T11:06:05;4.37;;;3.27;;
7080;SDS011;3582;51.506;11.948;2022-08-11T11:08:35;7.90;;;4.10;;
7080;SDS011;3582;51.506;11.948;2022-08-11T11:11:17;8.43;;;3.47;;
7080;SDS011;3582;51.506;11.948;2022-08-11T11:13:44;4.20;;;3.80;;
7080;SDS011;3582;51.506;11.948;2022-08-11T11:16:30;9.57;;;4.90;;
7080;SDS011;3582;51.506;11.948;2022-08-11T11:19:17;3.80;;;3.40;;
7080;SDS011;3582;51.506;11.948;2022-08-11T11:21:44;3.60;;;3.40;;
7080;SDS011;3582;51.506;11.948;2022-08-11T11:37:22;6.80;;;4.50;;
7080;SDS011;3582;51.506;11.948;2022-08-11T11:39:48;6.93;;;5.10;;
7080;SDS011;3582;51.506;11.948;2022-08-11T11:42:15;4.07;;;3.67;;
7080;SDS011;3582;51.506;11.948;2022-08-11T11:44:42;4.10;;;3.80;;
7080;SDS011;3582;51.506;11.948;2022-08-11T11:47:10;4.03;;;3.73;;
7080;SDS011;3582;51.506;11.948;2022-08-11T11:49:36;7.60;;;3.97;;
7080;SDS011;3582;51.506;11.948;2022-08-11T11:52:04;10.77;;;4.63;;
7080;SDS011;3582;51.506;11.948;2022-08-11T11:54:31;9.77;;;4.37;;
7080;SDS011;3582;51.506;11.948;2022-08-11T11:56:58;7.83;;;4.30;;
7080;SDS011;3582;51.506;11.948;2022-08-11T11:59:45;5.47;;;3.57;;
7080;SDS011;3582;51.506;11.948;2022-08-11T12:02:30;3.87;;;3.57;;
7080;SDS011;3582;51.506;11.948;2022-08-11T12:04:56;9.00;;;3.97;;
7080;SDS011;3582;51.506;11.948;2022-08-11T12:07:22;11.63;;;4.90;;
7080;SDS011;3582;51.506;11.948;2022-08-11T12:10:07;7.23;;;3.53;;
7080;SDS011;3582;51.506;11.948;2022-08-11T12:12:34;5.20;;;4.67;;
7080;SDS011;3582;51.506;11.948;2022-08-11T12:15:18;4.57;;;3.50;;
7080;SDS011;3582;51.506;11.948;2022-08-11T12:17:45;4.33;;;3.60;;
7080;SDS011;3582;51.506;11.948;2022-08-11T12:20:11;4.40;;;4.00;;
7080;SDS011;3582;51.506;11.948;2022-08-11T12:22:39;5.23;;;4.80;;
7080;SDS011;3582;51.506;11.948;2022-08-11T12:25:24;4.37;;;3.93;;
7080;SDS011;3582;51.506;11.948;2022-08-11T12:28:08;4.00;;;3.60;;
7080;SDS011;3582;51.506;11.948;2022-08-11T12:30:34;7.63;;;5.13;;
7080;SDS011;3582;51.506;11.948;2022-08-11T12:33:01;6.00;;;4.07;;
7080;SDS011;3582;51.506;11.948;2022-08-11T12:35:27;5.23;;;4.60;;
7080;SDS011;3582;51.506;11.948;2022-08-11T12:37:54;8.20;;;4.80;;
7080;SDS011;3582;51.506;11.948;2022-08-11T12:40:25;4.23;;;3.93;;
7080;SDS011;3582;51.506;11.948;2022-08-11T12:43:17;5.07;;;4.30;;
7080;SDS011;3582;51.506;11.948;2022-08-11T12:46:03;6.07;;;4.07;;
7080;SDS011;3582;51.506;11.948;2022-08-11T12:48:30;4.33;;;4.13;;
7080;SDS011;3582;51.506;11.948;2022-08-11T12:51:17;4.50;;;4.10;;
7080;SDS011;3582;51.506;11.948;2022-08-11T12:54:10;3.97;;;3.77;;
7080;SDS011;3582;51.506;11.948;2022-08-11T12:56:42;5.50;;;3.83;;
7080;SDS011;3582;51.506;11.948;2022-08-11T12:59:28;5.07;;;3.97;;
7080;SDS011;3582;51.506;11.948;2022-08-11T13:02:18;7.20;;;3.77;;
7080;SDS011;3582;51.506;11.948;2022-08-11T13:05:04;6.93;;;5.10;;
7080;SDS011;3582;51.506;11.948;2022-08-11T13:07:30;10.43;;;4.10;;
7080;SDS011;3582;51.506;11.948;2022-08-11T13:09:57;6.47;;;3.67;;
7080;SDS011;3582;51.506;11.948;2022-08-11T13:12:24;4.60;;;4.23;;
7080;SDS011;3582;51.506;11.948;2022-08-11T13:15:10;4.50;;;4.10;;
7080;SDS011;3582;51.506;11.948;2022-08-11T13:17:38;8.70;;;4.17;;
7080;SDS011;3582;51.506;11.948;2022-08-11T13:20:04;8.53;;;4.03;;
7080;SDS011;3582;51.506;11.948;2022-08-11T13:22:33;3.47;;;3.27;;
7080;SDS011;3582;51.506;11.948;2022-08-11T13:25:02;9.00;;;4.60;;
7080;SDS011;3582;51.506;11.948;2022-08-11T13:27:28;8.70;;;4.80;;
7080;SDS011;3582;51.506;11.948;2022-08-11T13:29:54;8.23;;;4.33;;
7080;SDS011;3582;51.506;11.948;2022-08-11T13:32:41;3.50;;;3.30;;
7080;SDS011;3582;51.506;11.948;2022-08-11T13:35:09;4.20;;;3.80;;
7080;SDS011;3582;51.506;11.948;2022-08-11T13:37:37;5.13;;;4.30;;
7080;SDS011;3582;51.506;11.948;2022-08-11T13:40:03;8.43;;;4.40;;
7080;SDS011;3582;51.506;11.948;2022-08-11T13:42:29;5.60;;;4.33;;
7080;SDS011;3582;51.506;11.948;2022-08-11T13:44:55;6.10;;;4.20;;
7080;SDS011;3582;51.506;11.948;2022-08-11T13:47:22;4.17;;;3.97;;
7080;SDS011;3582;51.506;11.948;2022-08-11T13:49:49;3.63;;;3.30;;
7080;SDS011;3582;51.506;11.948;2022-08-11T13:52:15;4.43;;;4.13;;
7080;SDS011;3582;51.506;11.948;2022-08-11T13:54:42;3.93;;;3.60;;
7080;SDS011;3582;51.506;11.948;2022-08-11T13:57:10;4.60;;;3.90;;
7080;SDS011;3582;51.506;11.948;2022-08-11T13:59:36;4.13;;;3.87;;
7080;SDS011;3582;51.506;11.948;2022-08-11T14:02:04;4.17;;;3.87;;
7080;SDS011;3582;51.506;11.948;2022-08-11T14:04:33;4.30;;;3.90;;
7080;SDS011;3582;51.506;11.948;2022-08-11T14:07:04;4.30;;;3.90;;
7080;SDS011;3582;51.506;11.948;2022-08-11T14:09:32;8.67;;;3.70;;
7080;SDS011;3582;51.506;11.948;2022-08-11T14:12:00;7.97;;;5.37;;
7080;SDS011;3582;51.506;11.948;2022-08-11T14:14:49;5.90;;;4.57;;
7080;SDS011;3582;51.506;11.948;2022-08-11T14:17:18;4.57;;;4.20;;
7080;SDS011;3582;51.506;11.948;2022-08-11T14:19:46;5.87;;;4.40;;
7080;SDS011;3582;51.506;11.948;2022-08-11T14:22:15;12.03;;;4.50;;
7080;SDS011;3582;51.506;11.948;2022-08-11T14:24:42;6.93;;;3.97;;
7080;SDS011;3582;51.506;11.948;2022-08-11T14:27:13;3.97;;;3.77;;
7080;SDS011;3582;51.506;11.948;2022-08-11T14:29:39;3.70;;;3.40;;
7080;SDS011;3582;51.506;11.948;2022-08-11T14:32:07;4.10;;;3.73;;
7080;SDS011;3582;51.506;11.948;2022-08-11T14:34:34;5.20;;;3.83;;
7080;SDS011;3582;51.506;11.948;2022-08-11T14:37:05;6.70;;;4.60;;
7080;SDS011;3582;51.506;11.948;2022-08-11T14:39:33;3.80;;;3.37;;
7080;SDS011;3582;51.506;11.948;2022-08-11T14:42:01;5.47;;;4.23;;
7080;SDS011;3582;51.506;11.948;2022-08-11T14:44:47;3.57;;;3.23;;
7080;SDS011;3582;51.506;11.948;2022-08-11T14:47:32;4.73;;;3.70;;
7080;SDS011;3582;51.506;11.948;2022-08-11T14:49:58;3.87;;;3.57;;
7080;SDS011;3582;51.506;11.948;2022-08-11T14:52:26;13.80;;;6.80;;
7080;SDS011;3582;51.506;11.948;2022-08-11T14:54:52;4.73;;;3.47;;
7080;SDS011;3582;51.506;11.948;2022-08-11T14:57:38;4.60;;;4.20;;
7080;SDS011;3582;51.506;11.948;2022-08-11T15:00:08;6.73;;;4.03;;
7080;SDS011;3582;51.506;11.948;2022-08-11T15:02:37;4.03;;;3.60;;
7080;SDS011;3582;51.506;11.948;2022-08-11T15:05:23;3.80;;;3.50;;
7080;SDS011;3582;51.506;11.948;2022-08-11T15:07:50;4.00;;;3.80;;
7080;SDS011;3582;51.506;11.948;2022-08-11T15:10:16;5.60;;;3.77;;
7080;SDS011;3582;51.506;11.948;2022-08-11T15:12:43;4.57;;;3.50;;
7080;SDS011;3582;51.506;11.948;2022-08-11T15:15:09;4.67;;;4.03;;
7080;SDS011;3582;51.506;11.948;2022-08-11T15:17:55;4.70;;;3.77;;
7080;SDS011;3582;51.506;11.948;2022-08-11T15:20:21;3.50;;;3.27;;
7080;SDS011;3582;51.506;11.948;2022-08-11T15:23:07;6.47;;;4.30;;
7080;SDS011;3582;51.506;11.948;2022-08-11T15:25:54;4.10;;;3.50;;
7080;SDS011;3582;51.506;11.948;2022-08-11T15:28:20;9.23;;;4.30;;
7080;SDS011;3582;51.506;11.948;2022-08-11T15:31:07;9.03;;;3.40;;
7080;SDS011;3582;51.506;11.948;2022-08-11T15:34:05;6.03;;;4.00;;
7080;SDS011;3582;51.506;11.948;2022-08-11T15:36:54;4.27;;;4.07;;
7080;SDS011;3582;51.506;11.948;2022-08-11T15:39:49;4.33;;;4.03;;
7080;SDS011;3582;51.506;11.948;2022-08-11T15:42:39;5.63;;;4.20;;
7080;SDS011;3582;51.506;11.948;2022-08-11T15:45:28;4.10;;;3.77;;
7080;SDS011;3582;51.506;11.948;2022-08-11T15:48:15;5.30;;;4.80;;
7080;SDS011;3582;51.506;11.948;2022-08-11T15:50:45;4.50;;;4.10;;
7080;SDS011;3582;51.506;11.948;2022-08-11T15:53:14;3.83;;;3.33;;
7080;SDS011;3582;51.506;11.948;2022-08-11T15:55:42;4.13;;;3.73;;
7080;SDS011;3582;51.506;11.948;2022-08-11T15:58:08;7.00;;;4.17;;
7080;SDS011;3582;51.506;11.948;2022-08-11T16:00:54;3.77;;;3.57;;
7080;SDS011;3582;51.506;11.948;2022-08-11T16:03:54;6.47;;;4.00;;
7080;SDS011;3582;51.506;11.948;2022-08-11T16:09:06;4.10;;;3.80;;
7080;SDS011;3582;51.506;11.948;2022-08-11T16:11:34;6.43;;;4.33;;
7080;SDS011;3582;51.506;11.948;2022-08-11T16:14:01;7.30;;;4.63;;
7080;SDS011;3582;51.506;11.948;2022-08-11T16:16:47;6.90;;;4.63;;
7080;SDS011;3582;51.506;11.948;2022-08-11T16:19:14;11.43;;;5.03;;
7080;SDS011;3582;51.506;11.948;2022-08-11T16:21:40;3.83;;;3.63;;
7080;SDS011;3582;51.506;11.948;2022-08-11T16:24:10;9.87;;;4.60;;
7080;SDS011;3582;51.506;11.948;2022-08-11T16:26:38;3.83;;;3.63;;
7080;SDS011;3582;51.506;11.948;2022-08-11T16:29:05;7.80;;;4.50;;
7080;SDS011;3582;51.506;11.948;2022-08-11T16:31:32;5.77;;;4.40;;
7080;SDS011;3582;51.506;11.948;2022-08-11T16:34:00;4.60;;;3.63;;
7080;SDS011;3582;51.506;11.948;2022-08-11T16:36:26;7.13;;;4.07;;
7080;SDS011;3582;51.506;11.948;2022-08-11T16:39:13;5.93;;;3.73;;
7080;SDS011;3582;51.506;11.948;2022-08-11T16:41:42;9.50;;;5.40;;
7080;SDS011;3582;51.506;11.948;2022-08-11T16:44:27;6.70;;;4.23;;
7080;SDS011;3582;51.506;11.948;2022-08-11T16:47:13;3.80;;;3.60;;
7080;SDS011;3582;51.506;11.948;2022-08-11T16:49:44;4.80;;;4.40;;
7080;SDS011;3582;51.506;11.948;2022-08-11T16:52:11;4.30;;;4.00;;
7080;SDS011;3582;51.506;11.948;2022-08-11T16:54:38;4.10;;;3.90;;
7080;SDS011;3582;51.506;11.948;2022-08-11T16:57:09;3.83;;;3.40;;
7080;SDS011;3582;51.506;11.948;2022-08-11T16:59:55;4.40;;;4.10;;
7080;SDS011;3582;51.506;11.948;2022-08-11T17:02:23;3.83;;;3.60;;
7080;SDS011;3582;51.506;11.948;2022-08-11T17:05:12;10.40;;;4.60;;
7080;SDS011;3582;51.506;11.948;2022-08-11T17:07:59;8.00;;;3.80;;
7080;SDS011;3582;51.506;11.948;2022-08-11T17:10:49;7.63;;;6.27;;
7080;SDS011;3582;51.506;11.948;2022-08-11T17:16:09;4.60;;;4.20;;
7080;SDS011;3582;51.506;11.948;2022-08-11T17:21:26;4.37;;;4.07;;
7080;SDS011;3582;51.506;11.948;2022-08-11T17:23:55;3.80;;;3.53;;
7080;SDS011;3582;51.506;11.948;2022-08-11T17:26:23;4.50;;;4.10;;
7080;SDS011;3582;51.506;11.948;2022-08-11T17:28:55;4.13;;;3.83;;
7080;SDS011;3582;51.506;11.948;2022-08-11T17:31:22;4.57;;;4.20;;
7080;SDS011;3582;51.506;11.948;2022-08-11T17:34:08;13.63;;;5.00;;
7080;SDS011;3582;51.506;11.948;2022-08-11T17:36:53;5.87;;;4.90;;
7080;SDS011;3582;51.506;11.948;2022-08-11T17:39:20;8.33;;;4.43;;
7080;SDS011;3582;51.506;11.948;2022-08-11T17:41:46;5.30;;;4.37;;
7080;SDS011;3582;51.506;11.948;2022-08-11T17:44:32;4.80;;;4.50;;
7080;SDS011;3582;51.506;11.948;2022-08-11T17:47:17;4.37;;;4.07;;
7080;SDS011;3582;51.506;11.948;2022-08-11T17:50:03;5.17;;;4.37;;
7080;SDS011;3582;51.506;11.948;2022-08-11T17:52:30;5.63;;;3.40;;
7080;SDS011;3582;51.506;11.948;2022-08-11T17:55:15;5.73;;;5.03;;
7080;SDS011;3582;51.506;11.948;2022-08-11T17:58:00;7.23;;;4.03;;
7080;SDS011;3582;51.506;11.948;2022-08-11T18:00:47;8.03;;;4.60;;
7080;SDS011;3582;51.506;11.948;2022-08-11T18:03:15;5.80;;;4.27;;
7080;SDS011;3582;51.506;11.948;2022-08-11T18:05:53;4.77;;;3.80;;
7080;SDS011;3582;51.506;11.948;2022-08-11T18:08:20;4.63;;;4.33;;
7080;SDS011;3582;51.506;11.948;2022-08-11T18:11:05;5.13;;;4.10;;
7080;SDS011;3582;51.506;11.948;2022-08-11T18:13:51;5.70;;;3.63;;
7080;SDS011;3582;51.506;11.948;2022-08-11T18:16:36;4.50;;;4.17;;
7080;SDS011;3582;51.506;11.948;2022-08-11T18:19:20;8.77;;;4.20;;
7080;SDS011;3582;51.506;11.948;2022-08-11T18:22:12;6.13;;;3.90;;
7080;SDS011;3582;51.506;11.948;2022-08-11T18:25:00;4.97;;;4.07;;
7080;SDS011;3582;51.506;11.948;2022-08-11T18:27:46;10.53;;;4.83;;
7080;SDS011;3582;51.506;11.948;2022-08-11T18:30:32;7.27;;;5.10;;
7080;SDS011;3582;51.506;11.948;2022-08-11T18:33:19;5.27;;;4.27;;
7080;SDS011;3582;51.506;11.948;2022-08-11T18:36:04;5.93;;;4.90;;
7080;SDS011;3582;51.506;11.948;2022-08-11T18:38:50;12.70;;;4.50;;
7080;SDS011;3582;51.506;11.948;2022-08-11T18:41:35;5.80;;;5.30;;
7080;SDS011;3582;51.506;11.948;2022-08-11T18:44:22;12.50;;;5.93;;
7080;SDS011;3582;51.506;11.948;2022-08-11T18:47:10;7.07;;;4.87;;